createdAt,value
2017-07-22T00:00:04.190Z,999.89
2017-07-22T00:00:44.736Z,999.83
2017-07-22T00:01:25.193Z,999.87
2017-07-22T00:02:05.701Z,999.84
2017-07-22T00:02:46.202Z,999.87
2017-07-22T00:03:26.753Z,999.84
2017-07-22T00:04:07.244Z,999.82
2017-07-22T00:04:47.756Z,999.8
2017-07-22T00:05:28.240Z,999.84
2017-07-22T00:06:08.722Z,999.87
2017-07-22T00:06:49.265Z,999.86
2017-07-22T00:07:29.729Z,999.83
2017-07-22T00:08:10.266Z,999.82
2017-07-22T00:08:50.763Z,999.84
2017-07-22T00:09:31.225Z,999.79
2017-07-22T00:10:11.736Z,999.79
2017-07-22T00:10:52.207Z,999.8
2017-07-22T00:11:32.694Z,999.76
2017-07-22T00:12:13.218Z,999.77
2017-07-22T00:12:53.695Z,999.78
2017-07-22T00:13:34.222Z,999.77
2017-07-22T00:14:14.688Z,999.76
2017-07-22T00:14:55.173Z,999.74
2017-07-22T00:15:35.667Z,999.75
2017-07-22T00:16:16.177Z,999.76
2017-07-22T00:16:56.714Z,999.76
2017-07-22T00:17:37.174Z,999.76
2017-07-22T00:18:17.683Z,999.76
2017-07-22T00:18:58.188Z,999.75
2017-07-22T00:19:38.673Z,999.77
2017-07-22T00:20:19.180Z,999.81
2017-07-22T00:20:59.688Z,999.82
2017-07-22T00:21:40.220Z,999.77
2017-07-22T00:22:20.685Z,999.81
2017-07-22T00:23:01.219Z,999.79
2017-07-22T00:23:41.847Z,999.79
2017-07-22T00:24:22.401Z,999.75
2017-07-22T00:25:02.881Z,999.75
2017-07-22T00:25:43.344Z,999.76
2017-07-22T00:26:23.883Z,999.72
2017-07-22T00:27:04.324Z,999.75
2017-07-22T00:27:44.982Z,999.73
2017-07-22T00:28:25.480Z,999.69
2017-07-22T00:29:05.954Z,999.67
2017-07-22T00:29:46.465Z,999.68
2017-07-22T00:30:26.963Z,999.64
2017-07-22T00:31:07.417Z,999.67
2017-07-22T00:31:47.920Z,999.7
2017-07-22T00:32:28.454Z,999.68
2017-07-22T00:33:08.918Z,999.67
2017-07-22T00:33:49.433Z,999.69
2017-07-22T00:34:29.950Z,999.68
2017-07-22T00:35:10.438Z,999.7
2017-07-22T00:35:50.940Z,999.67
2017-07-22T00:36:31.629Z,999.69
2017-07-22T00:37:12.531Z,999.72
2017-07-22T00:37:52.988Z,999.71
2017-07-22T00:38:33.483Z,999.7
2017-07-22T00:39:13.981Z,999.76
2017-07-22T00:39:54.483Z,999.72
2017-07-22T00:40:34.960Z,999.73
2017-07-22T00:41:15.470Z,999.73
2017-07-22T00:41:55.952Z,999.71
2017-07-22T00:42:36.419Z,999.69
2017-07-22T00:43:16.879Z,999.66
2017-07-22T00:43:57.446Z,999.65
2017-07-22T00:44:37.895Z,999.68
2017-07-22T00:45:18.418Z,999.66
2017-07-22T00:45:58.891Z,999.63
2017-07-22T00:46:39.389Z,999.65
2017-07-22T00:47:19.887Z,999.63
2017-07-22T00:48:00.417Z,999.65
2017-07-22T00:48:40.959Z,999.65
2017-07-22T00:49:21.418Z,999.64
2017-07-22T00:50:01.894Z,999.64
2017-07-22T00:50:42.439Z,999.66
2017-07-22T00:51:22.949Z,999.63
2017-07-22T00:52:03.406Z,999.62
2017-07-22T00:52:43.947Z,999.66
2017-07-22T00:53:24.443Z,999.65
2017-07-22T00:54:04.962Z,999.63
2017-07-22T00:54:45.468Z,999.62
2017-07-22T00:55:25.982Z,999.62
2017-07-22T00:56:06.493Z,999.65
2017-07-22T00:56:46.969Z,999.6
2017-07-22T00:57:27.468Z,999.59
2017-07-22T00:58:07.988Z,999.57
2017-07-22T00:58:48.468Z,999.54
2017-07-22T00:59:29.109Z,999.54
2017-07-22T01:00:09.614Z,999.54
2017-07-22T01:00:50.099Z,999.51
2017-07-22T01:01:30.627Z,999.52
2017-07-22T01:02:11.127Z,999.49
2017-07-22T01:02:51.615Z,999.46
2017-07-22T01:03:32.115Z,999.47
2017-07-22T01:04:12.618Z,999.43
2017-07-22T01:04:53.061Z,999.4
2017-07-22T01:05:33.557Z,999.41
2017-07-22T01:06:14.071Z,999.4
2017-07-22T01:06:54.584Z,999.34
2017-07-22T01:07:35.068Z,999.42
2017-07-22T01:08:16.079Z,999.4
2017-07-22T01:08:56.576Z,999.39
2017-07-22T01:09:37.061Z,999.39
2017-07-22T01:10:17.611Z,999.41
2017-07-22T01:10:58.062Z,999.43
2017-07-22T01:11:38.567Z,999.43
2017-07-22T01:12:19.091Z,999.43
2017-07-22T01:12:59.593Z,999.44
2017-07-22T01:13:40.045Z,999.43
2017-07-22T01:14:20.517Z,999.38
2017-07-22T01:15:01.040Z,999.4
2017-07-22T01:15:41.487Z,999.41
2017-07-22T01:16:21.991Z,999.37
2017-07-22T01:17:02.484Z,999.39
2017-07-22T01:17:42.971Z,999.39
2017-07-22T01:18:23.491Z,999.4
2017-07-22T01:19:03.972Z,999.37
2017-07-22T01:19:44.475Z,999.4
2017-07-22T01:20:25.002Z,999.41
2017-07-22T01:21:05.441Z,999.38
2017-07-22T01:21:45.959Z,999.39
2017-07-22T01:22:26.446Z,999.42
2017-07-22T01:23:06.900Z,999.4
2017-07-22T01:23:47.415Z,999.44
2017-07-22T01:24:27.883Z,999.36
2017-07-22T01:25:08.390Z,999.44
2017-07-22T01:25:48.867Z,999.4
2017-07-22T01:26:29.375Z,999.38
2017-07-22T01:27:09.908Z,999.38
2017-07-22T01:27:50.357Z,999.45
2017-07-22T01:28:30.888Z,999.42
2017-07-22T01:29:11.362Z,999.5
2017-07-22T01:29:51.850Z,999.41
2017-07-22T01:30:32.339Z,999.46
2017-07-22T01:31:12.813Z,999.5
2017-07-22T01:31:53.299Z,999.47
2017-07-22T01:32:33.801Z,999.51
2017-07-22T01:33:14.289Z,999.48
2017-07-22T01:33:54.809Z,999.47
2017-07-22T01:34:35.320Z,999.48
2017-07-22T01:35:15.804Z,999.48
2017-07-22T01:35:56.275Z,999.47
2017-07-22T01:36:36.808Z,999.48
2017-07-22T01:37:17.329Z,999.46
2017-07-22T01:37:57.801Z,999.44
2017-07-22T01:38:38.328Z,999.48
2017-07-22T01:39:18.797Z,999.41
2017-07-22T01:39:59.255Z,999.45
2017-07-22T01:40:39.719Z,999.41
2017-07-22T01:41:20.244Z,999.39
2017-07-22T01:42:00.789Z,999.39
2017-07-22T01:42:41.258Z,999.38
2017-07-22T01:43:21.755Z,999.39
2017-07-22T01:44:02.234Z,999.37
2017-07-22T01:44:42.728Z,999.34
2017-07-22T01:45:23.235Z,999.39
2017-07-22T01:46:03.698Z,999.4
2017-07-22T01:46:44.165Z,999.38
2017-07-22T01:47:24.696Z,999.4
2017-07-22T01:48:05.199Z,999.41
2017-07-22T01:48:45.697Z,999.38
2017-07-22T01:49:26.198Z,999.4
2017-07-22T01:50:06.684Z,999.41
2017-07-22T01:50:47.192Z,999.44
2017-07-22T01:51:27.707Z,999.44
2017-07-22T01:52:08.197Z,999.39
2017-07-22T01:52:48.697Z,999.39
2017-07-22T01:53:29.191Z,999.39
2017-07-22T01:54:09.704Z,999.36
2017-07-22T01:54:50.187Z,999.4
2017-07-22T01:55:30.692Z,999.36
2017-07-22T01:56:11.205Z,999.32
2017-07-22T01:56:51.719Z,999.3
2017-07-22T01:57:32.229Z,999.31
2017-07-22T01:58:12.709Z,999.3
2017-07-22T01:58:53.218Z,999.26
2017-07-22T01:59:33.717Z,999.25
2017-07-22T02:00:14.258Z,999.32
2017-07-22T02:00:54.789Z,999.27
2017-07-22T02:01:35.276Z,999.28
2017-07-22T02:02:15.804Z,999.28
2017-07-22T02:02:56.261Z,999.29
2017-07-22T02:03:36.768Z,999.32
2017-07-22T02:04:17.280Z,999.34
2017-07-22T02:04:57.790Z,999.33
2017-07-22T02:05:38.300Z,999.3
2017-07-22T02:06:18.784Z,999.33
2017-07-22T02:06:59.289Z,999.34
2017-07-22T02:07:39.779Z,999.38
2017-07-22T02:08:20.283Z,999.36
2017-07-22T02:09:00.807Z,999.37
2017-07-22T02:09:41.292Z,999.41
2017-07-22T02:10:21.788Z,999.36
2017-07-22T02:11:02.293Z,999.37
2017-07-22T02:11:42.804Z,999.33
2017-07-22T02:12:23.322Z,999.36
2017-07-22T02:13:03.824Z,999.37
2017-07-22T02:13:44.328Z,999.32
2017-07-22T02:14:24.840Z,999.33
2017-07-22T02:15:05.313Z,999.33
2017-07-22T02:15:45.829Z,999.36
2017-07-22T02:16:26.315Z,999.37
2017-07-22T02:17:06.809Z,999.34
2017-07-22T02:17:47.274Z,999.35
2017-07-22T02:18:27.840Z,999.39
2017-07-22T02:19:08.330Z,999.39
2017-07-22T02:19:48.809Z,999.38
2017-07-22T02:20:29.332Z,999.35
2017-07-22T02:21:09.817Z,999.39
2017-07-22T02:21:50.329Z,999.35
2017-07-22T02:22:30.838Z,999.38
2017-07-22T02:23:11.323Z,999.38
2017-07-22T02:23:51.833Z,999.37
2017-07-22T02:24:32.311Z,999.35
2017-07-22T02:25:12.808Z,999.35
2017-07-22T02:25:53.297Z,999.36
2017-07-22T02:26:33.824Z,999.33
2017-07-22T02:27:14.308Z,999.35
2017-07-22T02:27:54.808Z,999.34
2017-07-22T02:28:35.311Z,999.37
2017-07-22T02:29:15.769Z,999.35
2017-07-22T02:29:56.312Z,999.37
2017-07-22T02:30:36.790Z,999.38
2017-07-22T02:31:17.281Z,999.42
2017-07-22T02:31:57.810Z,999.36
2017-07-22T02:32:38.292Z,999.36
2017-07-22T02:33:18.763Z,999.42
2017-07-22T02:33:59.313Z,999.37
2017-07-22T02:34:39.806Z,999.38
2017-07-22T02:35:20.327Z,999.31
2017-07-22T02:36:00.896Z,999.36
2017-07-22T02:36:41.428Z,999.39
2017-07-22T02:37:21.912Z,999.37
2017-07-22T02:38:02.412Z,999.38
2017-07-22T02:38:42.936Z,999.41
2017-07-22T02:39:23.527Z,999.44
2017-07-22T02:40:04.076Z,999.45
2017-07-22T02:40:44.558Z,999.39
2017-07-22T02:41:25.078Z,999.42
2017-07-22T02:42:05.569Z,999.44
2017-07-22T02:42:46.079Z,999.37
2017-07-22T02:43:26.610Z,999.39
2017-07-22T02:44:07.108Z,999.4
2017-07-22T02:44:47.611Z,999.37
2017-07-22T02:45:28.126Z,999.33
2017-07-22T02:46:08.625Z,999.33
2017-07-22T02:46:49.144Z,999.39
2017-07-22T02:47:29.635Z,999.4
2017-07-22T02:48:10.170Z,999.38
2017-07-22T02:48:50.673Z,999.39
2017-07-22T02:49:31.168Z,999.44
2017-07-22T02:50:11.671Z,999.41
2017-07-22T02:50:52.247Z,999.43
2017-07-22T02:51:32.778Z,999.44
2017-07-22T02:52:13.236Z,999.43
2017-07-22T02:52:53.796Z,999.46
2017-07-22T02:53:34.289Z,999.42
2017-07-22T02:54:14.713Z,999.42
2017-07-22T02:54:55.203Z,999.42
2017-07-22T02:55:35.712Z,999.46
2017-07-22T02:56:16.228Z,999.46
2017-07-22T02:56:56.706Z,999.45
2017-07-22T02:57:37.209Z,999.47
2017-07-22T02:58:17.693Z,999.49
2017-07-22T02:58:58.212Z,999.5
2017-07-22T02:59:38.712Z,999.51
2017-07-22T03:00:19.202Z,999.5
2017-07-22T03:00:59.762Z,999.52
2017-07-22T03:01:40.265Z,999.48
2017-07-22T03:02:20.730Z,999.47
2017-07-22T03:03:01.253Z,999.49
2017-07-22T03:03:41.729Z,999.49
2017-07-22T03:04:22.222Z,999.5
2017-07-22T03:05:02.768Z,999.51
2017-07-22T03:05:43.240Z,999.48
2017-07-22T03:06:23.716Z,999.52
2017-07-22T03:07:04.236Z,999.51
2017-07-22T03:07:44.740Z,999.54
2017-07-22T03:08:25.250Z,999.5
2017-07-22T03:09:05.761Z,999.49
2017-07-22T03:09:46.274Z,999.54
2017-07-22T03:10:26.769Z,999.54
2017-07-22T03:11:07.263Z,999.52
2017-07-22T03:11:47.761Z,999.6
2017-07-22T03:12:28.275Z,999.56
2017-07-22T03:13:08.816Z,999.58
2017-07-22T03:13:49.319Z,999.59
2017-07-22T03:14:29.781Z,999.63
2017-07-22T03:15:10.379Z,999.64
2017-07-22T03:15:50.868Z,999.7
2017-07-22T03:16:31.419Z,999.62
2017-07-22T03:17:11.885Z,999.69
2017-07-22T03:17:52.410Z,999.7
2017-07-22T03:18:32.862Z,999.74
2017-07-22T03:19:13.395Z,999.74
2017-07-22T03:19:53.855Z,999.72
2017-07-22T03:20:34.359Z,999.74
2017-07-22T03:21:14.904Z,999.73
2017-07-22T03:21:55.377Z,999.71
2017-07-22T03:22:35.875Z,999.73
2017-07-22T03:23:16.386Z,999.77
2017-07-22T03:23:56.910Z,999.74
2017-07-22T03:24:37.412Z,999.75
2017-07-22T03:25:17.917Z,999.77
2017-07-22T03:25:58.416Z,999.75
2017-07-22T03:26:38.917Z,999.77
2017-07-22T03:27:19.402Z,999.76
2017-07-22T03:27:59.955Z,999.81
2017-07-22T03:28:40.440Z,999.81
2017-07-22T03:29:20.927Z,999.81
2017-07-22T03:30:01.452Z,999.76
2017-07-22T03:30:41.939Z,999.8
2017-07-22T03:31:22.438Z,999.83
2017-07-22T03:32:02.961Z,999.84
2017-07-22T03:32:43.455Z,999.79
2017-07-22T03:33:23.947Z,999.81
2017-07-22T03:34:04.475Z,999.8
2017-07-22T03:34:44.954Z,999.78
2017-07-22T03:35:25.444Z,999.84
2017-07-22T03:36:06.014Z,999.87
2017-07-22T03:36:46.542Z,999.86
2017-07-22T03:37:27.038Z,999.88
2017-07-22T03:38:07.537Z,999.86
2017-07-22T03:38:48.024Z,999.91
2017-07-22T03:39:28.523Z,999.87
2017-07-22T03:40:09.011Z,999.87
2017-07-22T03:40:49.499Z,999.87
2017-07-22T03:41:30.006Z,999.83
2017-07-22T03:42:10.500Z,999.86
2017-07-22T03:42:51.073Z,999.86
2017-07-22T03:43:31.535Z,999.85
2017-07-22T03:44:12.047Z,999.87
2017-07-22T03:44:52.580Z,999.83
2017-07-22T03:45:33.046Z,999.86
2017-07-22T03:46:13.562Z,999.85
2017-07-22T03:46:54.078Z,999.84
2017-07-22T03:47:34.569Z,999.86
2017-07-22T03:48:15.078Z,999.85
2017-07-22T03:48:55.626Z,999.85
2017-07-22T03:49:36.168Z,999.87
2017-07-22T03:50:16.671Z,999.89
2017-07-22T03:50:57.178Z,999.89
2017-07-22T03:51:37.630Z,999.84
2017-07-22T03:52:18.185Z,999.83
2017-07-22T03:52:58.801Z,999.86
2017-07-22T03:53:39.575Z,999.85
2017-07-22T03:54:20.073Z,999.87
2017-07-22T03:55:00.559Z,999.91
2017-07-22T03:55:41.041Z,999.91
2017-07-22T03:56:21.551Z,999.9
2017-07-22T03:57:02.165Z,999.86
2017-07-22T03:57:42.658Z,999.95
2017-07-22T03:58:23.244Z,999.97
2017-07-22T03:59:03.735Z,999.99
2017-07-22T03:59:44.268Z,999.99
2017-07-22T04:00:24.772Z,1000.03
2017-07-22T04:01:05.240Z,1000.04
2017-07-22T04:01:45.725Z,1000.05
2017-07-22T04:02:26.245Z,1000.04
2017-07-22T04:03:06.788Z,1000.05
2017-07-22T04:03:47.382Z,1000.05
2017-07-22T04:04:27.864Z,1000.07
2017-07-22T04:05:08.479Z,1000.05
2017-07-22T04:05:49.234Z,1000.07
2017-07-22T04:06:29.954Z,1000.06
2017-07-22T04:07:10.456Z,1000.11
2017-07-22T04:07:50.976Z,1000.11
2017-07-22T04:08:31.445Z,1000.11
2017-07-22T04:09:11.962Z,1000.13
2017-07-22T04:09:52.506Z,1000.11
2017-07-22T04:10:32.976Z,1000.15
2017-07-22T04:11:13.496Z,1000.14
2017-07-22T04:11:54.021Z,1000.15
2017-07-22T04:12:34.531Z,1000.14
2017-07-22T04:13:15.018Z,1000.12
2017-07-22T04:13:55.512Z,1000.12
2017-07-22T04:14:35.979Z,1000.1
2017-07-22T04:15:16.460Z,1000.1
2017-07-22T04:15:56.981Z,1000.05
2017-07-22T04:16:37.546Z,1000.06
2017-07-22T04:17:18.016Z,1000.05
2017-07-22T04:17:58.507Z,1000.04
2017-07-22T04:18:39.042Z,1000.05
2017-07-22T04:19:19.533Z,999.97
2017-07-22T04:19:59.995Z,1000.05
2017-07-22T04:20:40.507Z,1000
2017-07-22T04:21:21.074Z,999.98
2017-07-22T04:22:01.555Z,999.98
2017-07-22T04:22:42.041Z,999.98
2017-07-22T04:23:22.544Z,1000.02
2017-07-22T04:24:03.043Z,1000.01
2017-07-22T04:24:43.539Z,1000.02
2017-07-22T04:25:24.065Z,999.98
2017-07-22T04:26:04.569Z,999.98
2017-07-22T04:26:45.080Z,1000
2017-07-22T04:27:25.569Z,1000
2017-07-22T04:28:06.098Z,999.98
2017-07-22T04:28:46.581Z,1000.01
2017-07-22T04:29:27.087Z,999.97
2017-07-22T04:30:07.589Z,999.98
2017-07-22T04:30:48.201Z,999.98
2017-07-22T04:31:28.743Z,1000
2017-07-22T04:32:09.231Z,999.98
2017-07-22T04:32:49.759Z,1000
2017-07-22T04:33:30.251Z,1000.01
2017-07-22T04:34:10.738Z,1000.04
2017-07-22T04:34:51.292Z,1000.03
2017-07-22T04:35:31.795Z,1000.06
2017-07-22T04:36:12.336Z,1000.06
2017-07-22T04:36:52.810Z,1000.1
2017-07-22T04:37:33.313Z,1000.12
2017-07-22T04:38:14.012Z,1000.19
2017-07-22T04:38:54.462Z,1000.2
2017-07-22T04:39:35.005Z,1000.21
2017-07-22T04:40:15.468Z,1000.25
2017-07-22T04:40:56.071Z,1000.19
2017-07-22T04:41:36.515Z,1000.24
2017-07-22T04:42:17.015Z,1000.18
2017-07-22T04:42:57.498Z,1000.2
2017-07-22T04:43:38.003Z,1000.19
2017-07-22T04:44:18.493Z,1000.22
2017-07-22T04:44:59.024Z,1000.18
2017-07-22T04:45:39.540Z,1000.19
2017-07-22T04:46:20.018Z,1000.19
2017-07-22T04:47:00.463Z,1000.24
2017-07-22T04:47:40.933Z,1000.17
2017-07-22T04:48:21.440Z,1000.21
2017-07-22T04:49:02.013Z,1000.21
2017-07-22T04:49:42.646Z,1000.19
2017-07-22T04:50:23.128Z,1000.24
2017-07-22T04:51:03.697Z,1000.24
2017-07-22T04:51:44.175Z,1000.27
2017-07-22T04:52:24.791Z,1000.27
2017-07-22T04:53:05.301Z,1000.28
2017-07-22T04:53:45.789Z,1000.29
2017-07-22T04:54:26.307Z,1000.27
2017-07-22T04:55:06.820Z,1000.27
2017-07-22T04:55:47.268Z,1000.21
2017-07-22T04:56:27.790Z,1000.2
2017-07-22T04:57:08.278Z,1000.19
2017-07-22T04:57:48.743Z,1000.25
2017-07-22T04:58:29.276Z,1000.2
2017-07-22T04:59:09.741Z,1000.25
2017-07-22T04:59:50.241Z,1000.25
2017-07-22T05:00:30.823Z,1000.22
2017-07-22T05:01:11.453Z,1000.24
2017-07-22T05:01:51.846Z,1000.26
2017-07-22T05:02:32.349Z,1000.26
2017-07-22T05:03:12.862Z,1000.27
2017-07-22T05:03:53.402Z,1000.25
2017-07-22T05:04:33.886Z,1000.24
2017-07-22T05:05:14.416Z,1000.27
2017-07-22T05:05:54.867Z,1000.21
2017-07-22T05:06:35.357Z,1000.26
2017-07-22T05:07:15.858Z,1000.3
2017-07-22T05:07:56.404Z,1000.29
2017-07-22T05:08:36.900Z,1000.27
2017-07-22T05:09:17.412Z,1000.25
2017-07-22T05:09:57.897Z,1000.28
2017-07-22T05:10:38.385Z,1000.3
2017-07-22T05:11:18.913Z,1000.29
2017-07-22T05:11:59.396Z,1000.28
2017-07-22T05:12:39.912Z,1000.31
2017-07-22T05:13:20.486Z,1000.3
2017-07-22T05:14:00.986Z,1000.28
2017-07-22T05:14:41.513Z,1000.28
2017-07-22T05:15:21.959Z,1000.32
2017-07-22T05:16:02.456Z,1000.29
2017-07-22T05:16:42.954Z,1000.31
2017-07-22T05:17:23.469Z,1000.36
2017-07-22T05:18:03.959Z,1000.35
2017-07-22T05:18:44.465Z,1000.34
2017-07-22T05:19:24.951Z,1000.35
2017-07-22T05:20:05.446Z,1000.39
2017-07-22T05:20:45.966Z,1000.37
2017-07-22T05:21:26.453Z,1000.38
2017-07-22T05:22:06.943Z,1000.38
2017-07-22T05:22:47.413Z,1000.37
2017-07-22T05:23:27.936Z,1000.39
2017-07-22T05:24:08.435Z,1000.37
2017-07-22T05:24:48.911Z,1000.41
2017-07-22T05:25:29.397Z,1000.41
2017-07-22T05:26:09.920Z,1000.41
2017-07-22T05:26:50.357Z,1000.39
2017-07-22T05:27:30.877Z,1000.39
2017-07-22T05:28:11.407Z,1000.41
2017-07-22T05:28:51.910Z,1000.39
2017-07-22T05:29:32.410Z,1000.38
2017-07-22T05:30:12.911Z,1000.34
2017-07-22T05:30:53.375Z,1000.35
2017-07-22T05:31:33.887Z,1000.32
2017-07-22T05:32:14.387Z,1000.35
2017-07-22T05:32:54.871Z,1000.36
2017-07-22T05:33:35.435Z,1000.36
2017-07-22T05:34:15.940Z,1000.33
2017-07-22T05:34:56.451Z,1000.4
2017-07-22T05:35:36.923Z,1000.36
2017-07-22T05:36:17.472Z,1000.39
2017-07-22T05:36:57.961Z,1000.4
2017-07-22T05:37:38.453Z,1000.34
2017-07-22T05:38:18.915Z,1000.4
2017-07-22T05:38:59.466Z,1000.41
2017-07-22T05:39:40.017Z,1000.41
2017-07-22T05:40:20.494Z,1000.44
2017-07-22T05:41:01.032Z,1000.42
2017-07-22T05:41:41.575Z,1000.46
2017-07-22T05:42:22.064Z,1000.44
2017-07-22T05:43:02.723Z,1000.45
2017-07-22T05:43:43.262Z,1000.47
2017-07-22T05:44:23.716Z,1000.49
2017-07-22T05:45:04.258Z,1000.46
2017-07-22T05:45:44.779Z,1000.47
2017-07-22T05:46:25.330Z,1000.49
2017-07-22T05:47:05.838Z,1000.48
2017-07-22T05:47:46.294Z,1000.44
2017-07-22T05:48:26.806Z,1000.45
2017-07-22T05:49:07.338Z,1000.48
2017-07-22T05:49:47.791Z,1000.48
2017-07-22T05:50:28.280Z,1000.48
2017-07-22T05:51:09.103Z,1000.49
2017-07-22T05:51:49.623Z,1000.46
2017-07-22T05:52:30.131Z,1000.5
2017-07-22T05:53:10.587Z,1000.48
2017-07-22T05:53:51.123Z,1000.53
2017-07-22T05:54:31.639Z,1000.54
2017-07-22T05:55:12.161Z,1000.53
2017-07-22T05:55:52.608Z,1000.54
2017-07-22T05:56:33.317Z,1000.57
2017-07-22T05:57:13.823Z,1000.55
2017-07-22T05:57:54.356Z,1000.55
2017-07-22T05:58:34.806Z,1000.54
2017-07-22T05:59:15.340Z,1000.58
2017-07-22T05:59:55.880Z,1000.58
2017-07-22T06:00:36.354Z,1000.59
2017-07-22T06:01:16.841Z,1000.53
2017-07-22T06:01:57.327Z,1000.55
2017-07-22T06:02:37.961Z,1000.55
2017-07-22T06:03:18.476Z,1000.53
2017-07-22T06:03:58.937Z,1000.56
2017-07-22T06:04:39.441Z,1000.57
2017-07-22T06:05:19.965Z,1000.59
2017-07-22T06:06:00.431Z,1000.59
2017-07-22T06:06:40.955Z,1000.61
2017-07-22T06:07:21.465Z,1000.61
2017-07-22T06:08:02.035Z,1000.66
2017-07-22T06:08:42.477Z,1000.64
2017-07-22T06:09:23.068Z,1000.67
2017-07-22T06:10:03.540Z,1000.69
2017-07-22T06:10:44.032Z,1000.69
2017-07-22T06:11:24.571Z,1000.71
2017-07-22T06:12:04.999Z,1000.67
2017-07-22T06:12:45.504Z,1000.68
2017-07-22T06:13:25.967Z,1000.67
2017-07-22T06:14:07.457Z,1000.68
2017-07-22T06:14:47.952Z,1000.69
2017-07-22T06:15:29.331Z,1000.7
2017-07-22T06:16:09.859Z,1000.69
2017-07-22T06:16:50.343Z,1000.76
2017-07-22T06:17:30.846Z,1000.71
2017-07-22T06:18:11.343Z,1000.74
2017-07-22T06:18:51.866Z,1000.74
2017-07-22T06:19:32.365Z,1000.77
2017-07-22T06:20:12.876Z,1000.77
2017-07-22T06:20:53.394Z,1000.75
2017-07-22T06:21:33.909Z,1000.76
2017-07-22T06:22:15.150Z,1000.79
2017-07-22T06:22:55.590Z,1000.77
2017-07-22T06:23:36.144Z,1000.74
2017-07-22T06:24:16.627Z,1000.74
2017-07-22T06:24:57.273Z,1000.72
2017-07-22T06:25:37.815Z,1000.73
2017-07-22T06:26:21.752Z,1000.75
2017-07-22T06:27:02.197Z,1000.77
2017-07-22T06:27:42.745Z,1000.75
2017-07-22T06:29:48.275Z,1000.73
2017-07-22T06:30:29.298Z,1000.75
2017-07-22T06:31:09.806Z,1000.73
2017-07-22T06:31:50.446Z,1000.75
2017-07-22T06:32:30.976Z,1000.74
2017-07-22T06:33:12.283Z,1000.77
2017-07-22T06:33:52.779Z,1000.78
2017-07-22T06:34:33.244Z,1000.8
2017-07-22T06:35:13.884Z,1000.84
2017-07-22T06:35:54.320Z,1000.82
2017-07-22T06:36:34.812Z,1000.82
2017-07-22T06:37:15.287Z,1000.8
2017-07-22T06:37:55.818Z,1000.85
2017-07-22T06:38:36.337Z,1000.81
2017-07-22T06:39:16.836Z,1000.79
2017-07-22T06:39:57.325Z,1000.77
2017-07-22T06:40:37.803Z,1000.79
2017-07-22T06:41:18.333Z,1000.77
2017-07-22T06:41:58.828Z,1000.79
2017-07-22T06:42:39.287Z,1000.81
2017-07-22T06:43:19.780Z,1000.74
2017-07-22T06:44:00.347Z,1000.76
2017-07-22T06:44:40.771Z,1000.79
2017-07-22T06:45:21.254Z,1000.79
2017-07-22T06:46:01.765Z,1000.81
2017-07-22T06:46:42.313Z,1000.8
2017-07-22T06:47:22.799Z,1000.83
2017-07-22T06:48:03.259Z,1000.84
2017-07-22T06:48:43.779Z,1000.84
2017-07-22T06:49:24.286Z,1000.82
2017-07-22T06:50:04.783Z,1000.8
2017-07-22T06:50:46.081Z,1000.86
2017-07-22T06:51:26.726Z,1000.89
2017-07-22T06:52:07.247Z,1000.9
2017-07-22T06:52:47.731Z,1000.9
2017-07-22T06:53:28.257Z,1000.92
2017-07-22T06:54:08.810Z,1000.92
2017-07-22T06:54:49.277Z,1000.96
2017-07-22T06:55:29.819Z,1000.95
2017-07-22T06:56:10.299Z,1000.98
2017-07-22T06:56:50.808Z,1000.92
2017-07-22T06:57:31.346Z,1000.96
2017-07-22T06:58:11.862Z,1000.97
2017-07-22T06:58:52.375Z,1000.99
2017-07-22T06:59:32.829Z,1001.02
2017-07-22T07:00:13.350Z,1000.97
2017-07-22T07:00:53.964Z,1001.03
2017-07-22T07:01:34.331Z,1001.03
2017-07-22T07:02:14.849Z,1001.05
2017-07-22T07:02:55.603Z,1001.12
2017-07-22T07:03:36.554Z,1001.07
2017-07-22T07:04:16.874Z,1001.09
2017-07-22T07:04:57.396Z,1001.04
2017-07-22T07:05:37.874Z,1001.01
2017-07-22T07:06:18.821Z,1000.99
2017-07-22T07:06:59.305Z,1001.06
2017-07-22T07:07:39.858Z,1001.01
2017-07-22T07:08:20.354Z,1001.07
2017-07-22T07:09:00.825Z,1001.08
2017-07-22T07:09:41.375Z,1001.08
2017-07-22T07:10:21.837Z,1001.06
2017-07-22T07:11:02.320Z,1001.13
2017-07-22T07:11:42.846Z,1001.15
2017-07-22T07:12:23.469Z,1001.17
2017-07-22T07:13:05.468Z,1001.18
2017-07-22T07:13:46.623Z,1001.13
2017-07-22T07:14:27.306Z,1001.16
2017-07-22T07:15:07.782Z,1001.19
2017-07-22T07:15:48.290Z,1001.22
2017-07-22T07:16:28.828Z,1001.15
2017-07-22T07:17:09.312Z,1001.21
2017-07-22T07:17:49.829Z,1001.19
2017-07-22T07:18:30.341Z,1001.22
2017-07-22T07:19:10.909Z,1001.27
2017-07-22T07:19:51.362Z,1001.27
2017-07-22T07:20:31.901Z,1001.33
2017-07-22T07:21:12.438Z,1001.25
2017-07-22T07:21:52.934Z,1001.29
2017-07-22T07:22:33.429Z,1001.33
2017-07-22T07:23:13.946Z,1001.3
2017-07-22T07:23:54.571Z,1001.31
2017-07-22T07:24:34.965Z,1001.3
2017-07-22T07:25:15.454Z,1001.35
2017-07-22T07:25:55.954Z,1001.37
2017-07-22T07:26:36.465Z,1001.38
2017-07-22T07:27:16.924Z,1001.38
2017-07-22T07:27:57.443Z,1001.35
2017-07-22T07:28:37.938Z,1001.36
2017-07-22T07:29:18.465Z,1001.35
2017-07-22T07:29:58.956Z,1001.35
2017-07-22T07:30:39.504Z,1001.34
2017-07-22T07:31:19.985Z,1001.35
2017-07-22T07:32:00.427Z,1001.31
2017-07-22T07:32:40.942Z,1001.33
2017-07-22T07:33:22.425Z,1001.36
2017-07-22T07:34:02.878Z,1001.34
2017-07-22T07:34:43.393Z,1001.34
2017-07-22T07:35:23.934Z,1001.33
2017-07-22T07:36:04.437Z,1001.34
2017-07-22T07:36:45.516Z,1001.31
2017-07-22T07:37:25.707Z,1001.36
2017-07-22T07:38:06.170Z,1001.32
2017-07-22T07:38:46.698Z,1001.31
2017-07-22T07:39:27.189Z,1001.36
2017-07-22T07:40:07.684Z,1001.26
2017-07-22T07:40:48.202Z,1001.25
2017-07-22T07:41:28.680Z,1001.28
2017-07-22T07:42:09.189Z,1001.26
2017-07-22T07:42:49.761Z,1001.23
2017-07-22T07:43:30.241Z,1001.24
2017-07-22T07:44:10.718Z,1001.24
2017-07-22T07:44:51.241Z,1001.23
2017-07-22T07:45:31.727Z,1001.24
2017-07-22T07:46:12.230Z,1001.24
2017-07-22T07:46:52.733Z,1001.24
2017-07-22T07:47:33.250Z,1001.26
2017-07-22T07:48:13.698Z,1001.26
2017-07-22T07:48:54.250Z,1001.28
2017-07-22T07:49:34.753Z,1001.25
2017-07-22T07:50:15.246Z,1001.27
2017-07-22T07:50:55.775Z,1001.23
2017-07-22T07:51:36.265Z,1001.21
2017-07-22T07:52:16.802Z,1001.24
2017-07-22T07:52:57.358Z,1001.23
2017-07-22T07:53:37.783Z,1001.24
2017-07-22T07:54:18.271Z,1001.23
2017-07-22T07:54:58.805Z,1001.27
2017-07-22T07:55:39.267Z,1001.24
2017-07-22T07:56:19.770Z,1001.28
2017-07-22T07:57:00.208Z,1001.27
2017-07-22T07:57:40.779Z,1001.28
2017-07-22T07:58:21.234Z,1001.23
2017-07-22T07:59:01.726Z,1001.25
2017-07-22T07:59:42.279Z,1001.27
2017-07-22T08:00:22.762Z,1001.23
2017-07-22T08:01:03.288Z,1001.23
2017-07-22T08:01:43.818Z,1001.21
2017-07-22T08:02:24.307Z,1001.26
2017-07-22T08:03:04.797Z,1001.2
2017-07-22T08:03:45.413Z,1001.21
2017-07-22T08:04:25.907Z,1001.19
2017-07-22T08:05:06.433Z,1001.21
2017-07-22T08:05:46.887Z,1001.17
2017-07-22T08:06:27.458Z,1001.22
2017-07-22T08:07:07.999Z,1001.2
2017-07-22T08:07:48.491Z,1001.21
2017-07-22T08:08:28.955Z,1001.23
2017-07-22T08:09:09.505Z,1001.14
2017-07-22T08:09:50.140Z,1001.2
2017-07-22T08:10:30.661Z,1001.22
2017-07-22T08:11:11.135Z,1001.18
2017-07-22T08:11:51.662Z,1001.16
2017-07-22T08:12:32.194Z,1001.12
2017-07-22T08:13:12.720Z,1001.17
2017-07-22T08:13:53.234Z,1001.19
2017-07-22T08:14:33.941Z,1001.14
2017-07-22T08:15:14.455Z,1001.18
2017-07-22T08:15:54.927Z,1001.24
2017-07-22T08:16:35.405Z,1001.16
2017-07-22T08:17:15.942Z,1001.25
2017-07-22T08:17:56.617Z,1001.21
2017-07-22T08:18:37.181Z,1001.16
2017-07-22T08:19:18.350Z,1001.13
2017-07-22T08:19:58.973Z,1001.19
2017-07-22T08:20:39.469Z,1001.2